sensor_id;sensor_type;location;lat;lon;timestamp;temperature;humidity
79571;DHT22;69034;49.444;7.758;2024-02-26T00:01:46;11.30;54.30
79571;DHT22;69034;49.444;7.758;2024-02-26T00:05:47;11.30;54.30
79571;DHT22;69034;49.444;7.758;2024-02-26T00:09:48;11.20;54.30
79571;DHT22;69034;49.444;7.758;2024-02-26T00:13:50;11.20;54.40
79571;DHT22;69034;49.444;7.758;2024-02-26T00:17:50;11.20;54.40
79571;DHT22;69034;49.444;7.758;2024-02-26T00:21:51;11.20;54.30
79571;DHT22;69034;49.444;7.758;2024-02-26T00:25:54;11.10;54.40
79571;DHT22;69034;49.444;7.758;2024-02-26T00:29:54;11.10;54.50
79571;DHT22;69034;49.444;7.758;2024-02-26T00:33:55;11.10;54.50
79571;DHT22;69034;49.444;7.758;2024-02-26T00:37:56;11.10;54.60
79571;DHT22;69034;49.444;7.758;2024-02-26T00:41:59;11.00;54.70
79571;DHT22;69034;49.444;7.758;2024-02-26T00:45:59;11.00;54.90
79571;DHT22;69034;49.444;7.758;2024-02-26T00:50:00;10.90;55.00
79571;DHT22;69034;49.444;7.758;2024-02-26T00:54:02;10.90;55.00
79571;DHT22;69034;49.444;7.758;2024-02-26T00:58:03;10.90;55.00
79571;DHT22;69034;49.444;7.758;2024-02-26T01:02:03;10.80;55.10
79571;DHT22;69034;49.444;7.758;2024-02-26T01:06:05;10.80;55.20
79571;DHT22;69034;49.444;7.758;2024-02-26T01:10:07;10.80;55.30
79571;DHT22;69034;49.444;7.758;2024-02-26T01:14:09;10.70;55.40
79571;DHT22;69034;49.444;7.758;2024-02-26T01:18:09;10.70;55.50
79571;DHT22;69034;49.444;7.758;2024-02-26T01:22:10;10.70;55.60
79571;DHT22;69034;49.444;7.758;2024-02-26T01:26:11;10.60;55.70
79571;DHT22;69034;49.444;7.758;2024-02-26T01:30:12;10.60;55.80
79571;DHT22;69034;49.444;7.758;2024-02-26T01:34:12;10.60;55.80
79571;DHT22;69034;49.444;7.758;2024-02-26T01:38:14;10.60;56.00
79571;DHT22;69034;49.444;7.758;2024-02-26T01:42:15;10.60;56.20
79571;DHT22;69034;49.444;7.758;2024-02-26T01:46:16;10.70;56.40
79571;DHT22;69034;49.444;7.758;2024-02-26T01:50:18;10.80;56.40
79571;DHT22;69034;49.444;7.758;2024-02-26T01:54:19;11.00;56.30
79571;DHT22;69034;49.444;7.758;2024-02-26T01:58:21;11.10;56.10
79571;DHT22;69034;49.444;7.758;2024-02-26T02:02:21;11.20;56.20
79571;DHT22;69034;49.444;7.758;2024-02-26T02:06:23;11.20;56.10
79571;DHT22;69034;49.444;7.758;2024-02-26T02:10:26;11.30;56.10
79571;DHT22;69034;49.444;7.758;2024-02-26T02:14:27;11.30;56.10
79571;DHT22;69034;49.444;7.758;2024-02-26T02:18:28;11.30;56.10
79571;DHT22;69034;49.444;7.758;2024-02-26T02:22:29;11.30;56.20
79571;DHT22;69034;49.444;7.758;2024-02-26T02:26:32;11.30;56.20
79571;DHT22;69034;49.444;7.758;2024-02-26T02:30:33;11.30;56.20
79571;DHT22;69034;49.444;7.758;2024-02-26T02:34:36;11.30;56.30
79571;DHT22;69034;49.444;7.758;2024-02-26T02:38:37;11.20;56.40
79571;DHT22;69034;49.444;7.758;2024-02-26T02:42:38;11.10;56.60
79571;DHT22;69034;49.444;7.758;2024-02-26T02:46:39;10.90;56.80
79571;DHT22;69034;49.444;7.758;2024-02-26T02:50:40;10.80;56.90
79571;DHT22;69034;49.444;7.758;2024-02-26T02:54:40;10.70;57.00
79571;DHT22;69034;49.444;7.758;2024-02-26T02:58:42;10.70;57.20
79571;DHT22;69034;49.444;7.758;2024-02-26T03:02:43;10.60;57.20
79571;DHT22;69034;49.444;7.758;2024-02-26T03:06:45;10.60;57.30
79571;DHT22;69034;49.444;7.758;2024-02-26T03:10:46;10.50;57.50
79571;DHT22;69034;49.444;7.758;2024-02-26T03:14:46;10.50;57.60
79571;DHT22;69034;49.444;7.758;2024-02-26T03:18:47;10.40;57.80
79571;DHT22;69034;49.444;7.758;2024-02-26T03:22:48;10.40;57.90
79571;DHT22;69034;49.444;7.758;2024-02-26T03:26:48;10.40;57.90
79571;DHT22;69034;49.444;7.758;2024-02-26T03:30:49;10.40;58.10
79571;DHT22;69034;49.444;7.758;2024-02-26T03:34:49;10.30;58.00
79571;DHT22;69034;49.444;7.758;2024-02-26T03:38:50;10.30;58.10
79571;DHT22;69034;49.444;7.758;2024-02-26T03:42:51;10.30;58.20
79571;DHT22;69034;49.444;7.758;2024-02-26T03:46:54;10.20;58.40
79571;DHT22;69034;49.444;7.758;2024-02-26T03:50:54;10.20;58.40
79571;DHT22;69034;49.444;7.758;2024-02-26T03:54:55;10.20;58.50
79571;DHT22;69034;49.444;7.758;2024-02-26T03:58:56;10.20;58.60
79571;DHT22;69034;49.444;7.758;2024-02-26T04:02:56;10.20;58.70
79571;DHT22;69034;49.444;7.758;2024-02-26T04:06:57;10.20;58.70
79571;DHT22;69034;49.444;7.758;2024-02-26T04:10:58;10.20;58.70
79571;DHT22;69034;49.444;7.758;2024-02-26T04:14:58;10.20;58.80
79571;DHT22;69034;49.444;7.758;2024-02-26T04:19:02;10.10;58.90
79571;DHT22;69034;49.444;7.758;2024-02-26T04:23:03;10.10;58.90
79571;DHT22;69034;49.444;7.758;2024-02-26T04:27:04;10.10;59.00
79571;DHT22;69034;49.444;7.758;2024-02-26T04:31:04;10.10;59.10
79571;DHT22;69034;49.444;7.758;2024-02-26T04:35:05;10.00;59.20
79571;DHT22;69034;49.444;7.758;2024-02-26T04:39:06;10.00;59.20
79571;DHT22;69034;49.444;7.758;2024-02-26T04:43:07;10.00;59.30
79571;DHT22;69034;49.444;7.758;2024-02-26T04:47:08;10.00;59.40
79571;DHT22;69034;49.444;7.758;2024-02-26T04:51:08;10.00;59.50
79571;DHT22;69034;49.444;7.758;2024-02-26T04:55:09;10.00;59.50
79571;DHT22;69034;49.444;7.758;2024-02-26T04:59:10;10.00;59.50
79571;DHT22;69034;49.444;7.758;2024-02-26T05:03:10;10.00;59.60
79571;DHT22;69034;49.444;7.758;2024-02-26T05:07:13;10.00;59.60
79571;DHT22;69034;49.444;7.758;2024-02-26T05:11:14;9.90;59.70
79571;DHT22;69034;49.444;7.758;2024-02-26T05:15:14;9.90;59.70
79571;DHT22;69034;49.444;7.758;2024-02-26T05:19:18;9.90;59.70
79571;DHT22;69034;49.444;7.758;2024-02-26T05:23:19;9.90;59.70
79571;DHT22;69034;49.444;7.758;2024-02-26T05:27:19;9.90;59.80
79571;DHT22;69034;49.444;7.758;2024-02-26T05:31:20;9.90;59.80
79571;DHT22;69034;49.444;7.758;2024-02-26T05:35:20;9.90;59.80
79571;DHT22;69034;49.444;7.758;2024-02-26T05:39:21;9.90;60.00
79571;DHT22;69034;49.444;7.758;2024-02-26T05:43:22;9.90;60.10
79571;DHT22;69034;49.444;7.758;2024-02-26T05:47:22;9.90;60.00
79571;DHT22;69034;49.444;7.758;2024-02-26T05:51:23;9.90;60.10
79571;DHT22;69034;49.444;7.758;2024-02-26T05:55:23;9.90;60.30
79571;DHT22;69034;49.444;7.758;2024-02-26T05:59:24;9.80;60.30
79571;DHT22;69034;49.444;7.758;2024-02-26T06:03:25;9.90;60.40
79571;DHT22;69034;49.444;7.758;2024-02-26T06:07:26;9.80;60.40
79571;DHT22;69034;49.444;7.758;2024-02-26T06:11:26;9.80;60.40
79571;DHT22;69034;49.444;7.758;2024-02-26T06:15:27;9.80;60.60
79571;DHT22;69034;49.444;7.758;2024-02-26T06:19:28;9.90;61.10
79571;DHT22;69034;49.444;7.758;2024-02-26T06:23:29;10.00;61.20
79571;DHT22;69034;49.444;7.758;2024-02-26T06:27:29;10.20;61.00
79571;DHT22;69034;49.444;7.758;2024-02-26T06:31:30;10.30;61.00
79571;DHT22;69034;49.444;7.758;2024-02-26T06:35:31;10.40;60.90
79571;DHT22;69034;49.444;7.758;2024-02-26T06:39:32;10.50;60.80
79571;DHT22;69034;49.444;7.758;2024-02-26T06:43:32;10.60;60.80
79571;DHT22;69034;49.444;7.758;2024-02-26T06:47:33;10.70;60.70
79571;DHT22;69034;49.444;7.758;2024-02-26T06:51:33;10.80;60.60
79571;DHT22;69034;49.444;7.758;2024-02-26T06:55:34;10.90;60.60
79571;DHT22;69034;49.444;7.758;2024-02-26T06:59:35;11.00;60.50
79571;DHT22;69034;49.444;7.758;2024-02-26T07:03:35;11.00;60.40
79571;DHT22;69034;49.444;7.758;2024-02-26T07:07:36;11.10;60.50
79571;DHT22;69034;49.444;7.758;2024-02-26T07:11:37;11.10;60.50
79571;DHT22;69034;49.444;7.758;2024-02-26T07:15:37;11.20;60.50
79571;DHT22;69034;49.444;7.758;2024-02-26T07:19:38;11.30;60.30
79571;DHT22;69034;49.444;7.758;2024-02-26T07:23:39;11.20;60.30
79571;DHT22;69034;49.444;7.758;2024-02-26T07:27:40;11.20;60.50
79571;DHT22;69034;49.444;7.758;2024-02-26T07:31:40;11.10;60.50
79571;DHT22;69034;49.444;7.758;2024-02-26T07:35:41;11.20;60.40
79571;DHT22;69034;49.444;7.758;2024-02-26T07:39:42;11.20;60.50
79571;DHT22;69034;49.444;7.758;2024-02-26T07:43:42;11.30;60.50
79571;DHT22;69034;49.444;7.758;2024-02-26T07:47:43;11.30;60.30
79571;DHT22;69034;49.444;7.758;2024-02-26T07:51:43;11.40;60.40
79571;DHT22;69034;49.444;7.758;2024-02-26T07:55:44;11.50;60.30
79571;DHT22;69034;49.444;7.758;2024-02-26T07:59:45;11.60;60.20
79571;DHT22;69034;49.444;7.758;2024-02-26T08:03:50;11.70;60.20
79571;DHT22;69034;49.444;7.758;2024-02-26T08:07:50;11.70;60.10
79571;DHT22;69034;49.444;7.758;2024-02-26T08:11:51;11.80;60.20
79571;DHT22;69034;49.444;7.758;2024-02-26T08:15:52;11.80;60.10
79571;DHT22;69034;49.444;7.758;2024-02-26T08:19:52;11.90;60.10
79571;DHT22;69034;49.444;7.758;2024-02-26T08:23:53;11.90;60.10
79571;DHT22;69034;49.444;7.758;2024-02-26T08:27:54;12.00;60.10
79571;DHT22;69034;49.444;7.758;2024-02-26T08:31:54;12.20;59.80
79571;DHT22;69034;49.444;7.758;2024-02-26T08:35:55;12.60;59.20
79571;DHT22;69034;49.444;7.758;2024-02-26T08:39:56;12.80;59.20
79571;DHT22;69034;49.444;7.758;2024-02-26T08:43:56;12.80;59.30
79571;DHT22;69034;49.444;7.758;2024-02-26T08:47:58;12.90;59.40
79571;DHT22;69034;49.444;7.758;2024-02-26T08:51:59;12.90;59.40
79571;DHT22;69034;49.444;7.758;2024-02-26T08:56:00;13.00;59.30
79571;DHT22;69034;49.444;7.758;2024-02-26T09:00:04;13.20;59.10
79571;DHT22;69034;49.444;7.758;2024-02-26T09:04:05;13.70;58.50
79571;DHT22;69034;49.444;7.758;2024-02-26T09:08:06;14.10;58.00
79571;DHT22;69034;49.444;7.758;2024-02-26T09:12:07;14.50;57.60
79571;DHT22;69034;49.444;7.758;2024-02-26T09:16:08;14.80;57.20
79571;DHT22;69034;49.444;7.758;2024-02-26T09:20:09;15.10;57.10
79571;DHT22;69034;49.444;7.758;2024-02-26T09:24:10;15.30;57.10
79571;DHT22;69034;49.444;7.758;2024-02-26T09:28:11;15.60;56.80
79571;DHT22;69034;49.444;7.758;2024-02-26T09:32:12;15.70;56.80
79571;DHT22;69034;49.444;7.758;2024-02-26T09:36:12;15.80;56.70
79571;DHT22;69034;49.444;7.758;2024-02-26T09:40:14;16.10;56.30
79571;DHT22;69034;49.444;7.758;2024-02-26T09:44:24;16.50;55.90
79571;DHT22;69034;49.444;7.758;2024-02-26T09:48:25;16.90;55.40
79571;DHT22;69034;49.444;7.758;2024-02-26T09:52:28;17.40;54.90
79571;DHT22;69034;49.444;7.758;2024-02-26T09:56:29;17.70;54.60
79571;DHT22;69034;49.444;7.758;2024-02-26T10:00:31;18.00;54.50
79571;DHT22;69034;49.444;7.758;2024-02-26T10:04:36;18.40;54.10
79571;DHT22;69034;49.444;7.758;2024-02-26T10:08:37;18.80;53.70
79571;DHT22;69034;49.444;7.758;2024-02-26T10:12:38;19.00;53.50
79571;DHT22;69034;49.444;7.758;2024-02-26T10:16:39;19.20;53.40
79571;DHT22;69034;49.444;7.758;2024-02-26T10:20:40;19.30;53.10
79571;DHT22;69034;49.444;7.758;2024-02-26T10:24:40;19.40;53.10
79571;DHT22;69034;49.444;7.758;2024-02-26T10:28:45;19.60;52.80
79571;DHT22;69034;49.444;7.758;2024-02-26T10:32:46;19.70;52.50
79571;DHT22;69034;49.444;7.758;2024-02-26T10:36:50;19.80;52.40
79571;DHT22;69034;49.444;7.758;2024-02-26T10:40:50;19.90;52.10
79571;DHT22;69034;49.444;7.758;2024-02-26T10:44:51;20.00;52.00
79571;DHT22;69034;49.444;7.758;2024-02-26T10:48:52;20.10;51.80
79571;DHT22;69034;49.444;7.758;2024-02-26T10:52:54;20.00;51.80
79571;DHT22;69034;49.444;7.758;2024-02-26T10:56:59;20.20;51.60
79571;DHT22;69034;49.444;7.758;2024-02-26T11:01:01;20.30;51.40
79571;DHT22;69034;49.444;7.758;2024-02-26T11:05:06;20.50;51.10
79571;DHT22;69034;49.444;7.758;2024-02-26T11:09:08;21.10;50.10
79571;DHT22;69034;49.444;7.758;2024-02-26T11:13:14;21.90;49.30
79571;DHT22;69034;49.444;7.758;2024-02-26T11:17:16;22.30;48.80
79571;DHT22;69034;49.444;7.758;2024-02-26T11:21:19;22.60;48.60
79571;DHT22;69034;49.444;7.758;2024-02-26T11:25:20;22.70;48.80
79571;DHT22;69034;49.444;7.758;2024-02-26T11:29:21;23.10;48.20
79571;DHT22;69034;49.444;7.758;2024-02-26T11:33:22;23.30;48.10
79571;DHT22;69034;49.444;7.758;2024-02-26T11:37:23;23.30;48.00
79571;DHT22;69034;49.444;7.758;2024-02-26T11:41:24;23.20;48.40
79571;DHT22;69034;49.444;7.758;2024-02-26T11:49:42;22.50;48.50
79571;DHT22;69034;49.444;7.758;2024-02-26T11:53:46;21.90;49.10
79571;DHT22;69034;49.444;7.758;2024-02-26T11:57:48;21.30;49.50
79571;DHT22;69034;49.444;7.758;2024-02-26T12:01:49;21.40;49.10
79571;DHT22;69034;49.444;7.758;2024-02-26T12:05:52;21.50;49.00
79571;DHT22;69034;49.444;7.758;2024-02-26T12:10:35;21.40;49.10
79571;DHT22;69034;49.444;7.758;2024-02-26T12:14:39;21.40;48.80
79571;DHT22;69034;49.444;7.758;2024-02-26T12:18:40;22.00;47.90
79571;DHT22;69034;49.444;7.758;2024-02-26T12:22:44;22.30;47.60
79571;DHT22;69034;49.444;7.758;2024-02-26T12:26:46;22.50;47.30
79571;DHT22;69034;49.444;7.758;2024-02-26T12:30:47;22.50;47.20
79571;DHT22;69034;49.444;7.758;2024-02-26T12:34:48;22.40;47.30
79571;DHT22;69034;49.444;7.758;2024-02-26T12:38:53;22.10;47.60
79571;DHT22;69034;49.444;7.758;2024-02-26T12:42:54;22.00;47.80
79571;DHT22;69034;49.444;7.758;2024-02-26T12:47:02;22.10;47.20
79571;DHT22;69034;49.444;7.758;2024-02-26T12:51:03;21.90;47.30
79571;DHT22;69034;49.444;7.758;2024-02-26T12:55:05;21.60;47.80
79571;DHT22;69034;49.444;7.758;2024-02-26T12:59:09;21.40;48.00
79571;DHT22;69034;49.444;7.758;2024-02-26T13:03:10;21.10;48.30
79571;DHT22;69034;49.444;7.758;2024-02-26T13:07:13;20.80;48.70
79571;DHT22;69034;49.444;7.758;2024-02-26T13:11:14;20.60;48.90
79571;DHT22;69034;49.444;7.758;2024-02-26T13:15:17;20.30;49.20
79571;DHT22;69034;49.444;7.758;2024-02-26T13:19:18;20.00;49.50
79571;DHT22;69034;49.444;7.758;2024-02-26T13:23:20;19.80;49.70
79571;DHT22;69034;49.444;7.758;2024-02-26T13:27:24;19.70;49.80
79571;DHT22;69034;49.444;7.758;2024-02-26T13:31:24;19.70;49.90
79571;DHT22;69034;49.444;7.758;2024-02-26T13:35:25;19.50;50.10
79571;DHT22;69034;49.444;7.758;2024-02-26T13:39:27;19.50;49.90
79571;DHT22;69034;49.444;7.758;2024-02-26T13:43:28;19.70;49.50
79571;DHT22;69034;49.444;7.758;2024-02-26T13:47:29;19.90;49.30
79571;DHT22;69034;49.444;7.758;2024-02-26T13:51:29;20.30;48.80
79571;DHT22;69034;49.444;7.758;2024-02-26T13:55:35;20.60;48.80
79571;DHT22;69034;49.444;7.758;2024-02-26T13:59:36;20.80;48.60
79571;DHT22;69034;49.444;7.758;2024-02-26T14:03:37;20.90;48.50
79571;DHT22;69034;49.444;7.758;2024-02-26T14:07:38;20.90;48.40
79571;DHT22;69034;49.444;7.758;2024-02-26T14:11:40;21.50;47.40
79571;DHT22;69034;49.444;7.758;2024-02-26T14:15:43;22.10;46.40
79571;DHT22;69034;49.444;7.758;2024-02-26T14:19:43;22.80;45.70
79571;DHT22;69034;49.444;7.758;2024-02-26T14:23:44;22.40;46.40
79571;DHT22;69034;49.444;7.758;2024-02-26T14:27:47;22.20;46.80
79571;DHT22;69034;49.444;7.758;2024-02-26T14:31:48;21.90;47.00
79571;DHT22;69034;49.444;7.758;2024-02-26T14:35:48;21.70;47.00
79571;DHT22;69034;49.444;7.758;2024-02-26T14:39:49;21.40;47.10
79571;DHT22;69034;49.444;7.758;2024-02-26T14:43:52;21.30;47.20
79571;DHT22;69034;49.444;7.758;2024-02-26T14:47:52;21.30;47.20
79571;DHT22;69034;49.444;7.758;2024-02-26T14:51:53;21.40;47.10
79571;DHT22;69034;49.444;7.758;2024-02-26T14:55:54;21.30;47.10
79571;DHT22;69034;49.444;7.758;2024-02-26T14:59:54;21.00;47.30
79571;DHT22;69034;49.444;7.758;2024-02-26T15:03:55;20.90;47.30
79571;DHT22;69034;49.444;7.758;2024-02-26T15:07:56;20.70;47.50
79571;DHT22;69034;49.444;7.758;2024-02-26T15:11:56;20.70;47.50
79571;DHT22;69034;49.444;7.758;2024-02-26T15:15:57;20.60;47.50
79571;DHT22;69034;49.444;7.758;2024-02-26T15:19:58;20.50;47.80
79571;DHT22;69034;49.444;7.758;2024-02-26T15:23:59;20.40;47.90
79571;DHT22;69034;49.444;7.758;2024-02-26T15:28:00;20.30;48.00
79571;DHT22;69034;49.444;7.758;2024-02-26T15:32:01;20.10;48.20
79571;DHT22;69034;49.444;7.758;2024-02-26T15:36:02;20.00;48.40
79571;DHT22;69034;49.444;7.758;2024-02-26T15:40:03;19.90;48.50
79571;DHT22;69034;49.444;7.758;2024-02-26T15:44:04;20.60;47.70
79571;DHT22;69034;49.444;7.758;2024-02-26T15:48:05;20.70;47.90
79571;DHT22;69034;49.444;7.758;2024-02-26T15:52:06;20.20;48.40
79571;DHT22;69034;49.444;7.758;2024-02-26T15:56:07;19.80;48.80
79571;DHT22;69034;49.444;7.758;2024-02-26T16:00:08;19.40;49.30
79571;DHT22;69034;49.444;7.758;2024-02-26T16:04:10;19.10;49.50
79571;DHT22;69034;49.444;7.758;2024-02-26T16:08:18;19.00;49.50
79571;DHT22;69034;49.444;7.758;2024-02-26T16:12:27;19.20;49.30
79571;DHT22;69034;49.444;7.758;2024-02-26T16:16:32;19.00;49.60
79571;DHT22;69034;49.444;7.758;2024-02-26T16:20:34;18.60;50.10
79571;DHT22;69034;49.444;7.758;2024-02-26T16:24:35;18.30;50.40
79571;DHT22;69034;49.444;7.758;2024-02-26T16:28:39;18.00;50.90
79571;DHT22;69034;49.444;7.758;2024-02-26T16:32:40;17.70;51.30
79571;DHT22;69034;49.444;7.758;2024-02-26T16:36:42;17.40;51.60
79571;DHT22;69034;49.444;7.758;2024-02-26T16:40:42;17.20;52.00
79571;DHT22;69034;49.444;7.758;2024-02-26T16:44:43;17.00;52.40
79571;DHT22;69034;49.444;7.758;2024-02-26T16:48:44;16.90;52.60
79571;DHT22;69034;49.444;7.758;2024-02-26T16:52:46;16.70;52.80
79571;DHT22;69034;49.444;7.758;2024-02-26T16:56:46;16.60;53.00
79571;DHT22;69034;49.444;7.758;2024-02-26T17:00:47;16.40;53.70
79571;DHT22;69034;49.444;7.758;2024-02-26T17:04:48;16.30;54.20
79571;DHT22;69034;49.444;7.758;2024-02-26T17:08:49;16.20;54.50
79571;DHT22;69034;49.444;7.758;2024-02-26T17:12:50;16.10;54.70
79571;DHT22;69034;49.444;7.758;2024-02-26T17:16:51;16.00;55.00
79571;DHT22;69034;49.444;7.758;2024-02-26T17:20:52;16.00;55.40
79571;DHT22;69034;49.444;7.758;2024-02-26T17:24:53;15.80;55.60
79571;DHT22;69034;49.444;7.758;2024-02-26T17:28:54;15.70;55.70
79571;DHT22;69034;49.444;7.758;2024-02-26T17:32:56;15.60;55.90
79571;DHT22;69034;49.444;7.758;2024-02-26T17:36:57;15.50;56.10
79571;DHT22;69034;49.444;7.758;2024-02-26T17:40:59;15.50;56.20
79571;DHT22;69034;49.444;7.758;2024-02-26T17:45:00;15.40;56.40
79571;DHT22;69034;49.444;7.758;2024-02-26T17:49:01;15.30;56.40
79571;DHT22;69034;49.444;7.758;2024-02-26T17:53:01;15.20;56.60
79571;DHT22;69034;49.444;7.758;2024-02-26T17:57:02;15.20;56.70
79571;DHT22;69034;49.444;7.758;2024-02-26T18:01:03;15.10;56.80
79571;DHT22;69034;49.444;7.758;2024-02-26T18:05:04;15.00;56.80
79571;DHT22;69034;49.444;7.758;2024-02-26T18:09:05;14.80;57.00
79571;DHT22;69034;49.444;7.758;2024-02-26T18:13:07;14.60;57.10
79571;DHT22;69034;49.444;7.758;2024-02-26T18:17:07;14.40;57.40
79571;DHT22;69034;49.444;7.758;2024-02-26T18:21:08;14.30;57.50
79571;DHT22;69034;49.444;7.758;2024-02-26T18:25:09;14.20;57.60
79571;DHT22;69034;49.444;7.758;2024-02-26T18:29:10;14.10;57.70
79571;DHT22;69034;49.444;7.758;2024-02-26T18:33:11;14.00;57.80
79571;DHT22;69034;49.444;7.758;2024-02-26T18:37:12;14.00;57.90
79571;DHT22;69034;49.444;7.758;2024-02-26T18:41:23;13.90;58.10
79571;DHT22;69034;49.444;7.758;2024-02-26T18:45:24;13.80;58.10
79571;DHT22;69034;49.444;7.758;2024-02-26T18:49:24;13.70;58.20
79571;DHT22;69034;49.444;7.758;2024-02-26T18:53:25;13.70;58.30
79571;DHT22;69034;49.444;7.758;2024-02-26T18:57:26;13.60;58.40
79571;DHT22;69034;49.444;7.758;2024-02-26T19:01:28;13.60;58.50
79571;DHT22;69034;49.444;7.758;2024-02-26T19:05:29;13.50;58.50
79571;DHT22;69034;49.444;7.758;2024-02-26T19:09:32;13.50;58.60
79571;DHT22;69034;49.444;7.758;2024-02-26T19:13:33;13.40;58.70
79571;DHT22;69034;49.444;7.758;2024-02-26T19:17:34;13.40;58.80
79571;DHT22;69034;49.444;7.758;2024-02-26T19:21:35;13.30;58.90
79571;DHT22;69034;49.444;7.758;2024-02-26T19:25:36;13.30;58.90
79571;DHT22;69034;49.444;7.758;2024-02-26T19:29:37;13.20;59.10
79571;DHT22;69034;49.444;7.758;2024-02-26T19:33:37;13.20;59.10
79571;DHT22;69034;49.444;7.758;2024-02-26T19:37:38;13.10;59.10
79571;DHT22;69034;49.444;7.758;2024-02-26T19:41:39;13.10;59.20
79571;DHT22;69034;49.444;7.758;2024-02-26T19:45:39;13.00;59.20
79571;DHT22;69034;49.444;7.758;2024-02-26T19:49:40;13.00;59.20
79571;DHT22;69034;49.444;7.758;2024-02-26T19:53:41;13.00;59.30
79571;DHT22;69034;49.444;7.758;2024-02-26T19:57:42;12.90;59.40
79571;DHT22;69034;49.444;7.758;2024-02-26T20:01:42;12.90;59.60
79571;DHT22;69034;49.444;7.758;2024-02-26T20:05:43;12.80;59.60
79571;DHT22;69034;49.444;7.758;2024-02-26T20:09:44;12.80;59.70
79571;DHT22;69034;49.444;7.758;2024-02-26T20:13:45;12.70;59.80
79571;DHT22;69034;49.444;7.758;2024-02-26T20:17:46;12.70;59.90
79571;DHT22;69034;49.444;7.758;2024-02-26T20:21:47;12.70;59.90
79571;DHT22;69034;49.444;7.758;2024-02-26T20:25:47;12.60;59.90
79571;DHT22;69034;49.444;7.758;2024-02-26T20:29:48;12.60;60.00
79571;DHT22;69034;49.444;7.758;2024-02-26T20:33:48;12.60;60.10
79571;DHT22;69034;49.444;7.758;2024-02-26T20:37:49;12.50;60.10
79571;DHT22;69034;49.444;7.758;2024-02-26T20:41:50;12.50;60.10
79571;DHT22;69034;49.444;7.758;2024-02-26T20:45:51;12.50;60.50
79571;DHT22;69034;49.444;7.758;2024-02-26T20:49:52;12.60;60.50
79571;DHT22;69034;49.444;7.758;2024-02-26T20:53:53;12.70;60.50
79571;DHT22;69034;49.444;7.758;2024-02-26T20:57:53;12.80;60.40
79571;DHT22;69034;49.444;7.758;2024-02-26T21:01:54;12.90;60.30
79571;DHT22;69034;49.444;7.758;2024-02-26T21:05:55;13.00;60.20
79571;DHT22;69034;49.444;7.758;2024-02-26T21:09:56;13.00;60.20
79571;DHT22;69034;49.444;7.758;2024-02-26T21:13:57;13.10;60.20
79571;DHT22;69034;49.444;7.758;2024-02-26T21:17:58;13.10;60.20
79571;DHT22;69034;49.444;7.758;2024-02-26T21:21:58;13.10;60.20
79571;DHT22;69034;49.444;7.758;2024-02-26T21:25:59;13.10;60.10
79571;DHT22;69034;49.444;7.758;2024-02-26T21:30:00;13.10;60.10
79571;DHT22;69034;49.444;7.758;2024-02-26T21:34:02;13.10;60.20
79571;DHT22;69034;49.444;7.758;2024-02-26T21:38:04;13.10;60.10
79571;DHT22;69034;49.444;7.758;2024-02-26T21:42:05;13.00;60.10
79571;DHT22;69034;49.444;7.758;2024-02-26T21:46:06;12.90;60.10
79571;DHT22;69034;49.444;7.758;2024-02-26T21:50:07;12.60;60.40
79571;DHT22;69034;49.444;7.758;2024-02-26T21:54:13;12.50;60.60
79571;DHT22;69034;49.444;7.758;2024-02-26T21:58:14;12.30;60.70
79571;DHT22;69034;49.444;7.758;2024-02-26T22:02:15;12.20;60.80
79571;DHT22;69034;49.444;7.758;2024-02-26T22:06:17;12.10;61.00
79571;DHT22;69034;49.444;7.758;2024-02-26T22:10:17;12.00;61.00
79571;DHT22;69034;49.444;7.758;2024-02-26T22:14:21;11.90;61.10
79571;DHT22;69034;49.444;7.758;2024-02-26T22:18:22;11.80;61.10
79571;DHT22;69034;49.444;7.758;2024-02-26T22:22:26;11.70;61.20
79571;DHT22;69034;49.444;7.758;2024-02-26T22:26:26;11.60;61.30
79571;DHT22;69034;49.444;7.758;2024-02-26T22:30:28;11.60;61.40
79571;DHT22;69034;49.444;7.758;2024-02-26T22:34:29;11.50;61.40
79571;DHT22;69034;49.444;7.758;2024-02-26T22:38:49;11.50;61.40
79571;DHT22;69034;49.444;7.758;2024-02-26T22:42:51;11.50;61.50
79571;DHT22;69034;49.444;7.758;2024-02-26T22:46:55;11.40;61.50
79571;DHT22;69034;49.444;7.758;2024-02-26T22:50:57;11.40;61.50
79571;DHT22;69034;49.444;7.758;2024-02-26T22:55:00;11.40;61.50
79571;DHT22;69034;49.444;7.758;2024-02-26T22:59:01;11.40;61.60
79571;DHT22;69034;49.444;7.758;2024-02-26T23:03:05;11.40;61.50
79571;DHT22;69034;49.444;7.758;2024-02-26T23:07:06;11.40;61.60
79571;DHT22;69034;49.444;7.758;2024-02-26T23:11:06;11.40;61.60
79571;DHT22;69034;49.444;7.758;2024-02-26T23:15:09;11.30;61.60
79571;DHT22;69034;49.444;7.758;2024-02-26T23:19:12;11.30;61.70
79571;DHT22;69034;49.444;7.758;2024-02-26T23:23:13;11.30;61.70
79571;DHT22;69034;49.444;7.758;2024-02-26T23:27:15;11.30;61.70
79571;DHT22;69034;49.444;7.758;2024-02-26T23:31:15;11.20;61.70
79571;DHT22;69034;49.444;7.758;2024-02-26T23:39:54;11.10;61.90
79571;DHT22;69034;49.444;7.758;2024-02-26T23:43:55;11.00;61.90
79571;DHT22;69034;49.444;7.758;2024-02-26T23:47:57;11.00;61.90
79571;DHT22;69034;49.444;7.758;2024-02-26T23:51:57;10.90;62.00
79571;DHT22;69034;49.444;7.758;2024-02-26T23:55:58;10.90;62.00
79571;DHT22;69034;49.444;7.758;2024-02-26T23:59:59;10.80;62.10
